VABP/BHO METAR and TAF weather

Enter ICAO airport designator
Station Type Date Time Source
VABP METAR 2019/09/20 18:00 UTC NOAA

VABP 201800Z 07002KT 6000 -TS SCT020 FEW030CB BKN100 25/25 Q1011 NOSIG


Station Type Date Time Source
VABP Decoded METAR 2019/09/20 18:00 UTC NOAA

Bhopal / Bairagarh, India (VABP) 23-17N 077-21E 523M
Sep 20, 2019 - 02:00 PM EDT / 2019.09.20 1800 UTC
Wind: from the ENE (070 degrees) at 2 MPH (2 KT):0
Visibility: 3 mile(s):0
Sky conditions: mostly cloudy
Weather: light with thunder; Cumulonimbus clouds observed
Temperature: 77 F (25 C)
Dew Point: 77 F (25 C)
Relative Humidity: 100%
Pressure (altimeter): 29.85 in. Hg (1011 hPa)
ob: VABP 201800Z 07002KT 6000 -TS SCT020 FEW030CB BKN100 25/25 Q1011 NOSIG
cycle: 18

Station Type Date Time Source
VABP TAF 2019/04/18 06:00 UTC NOAA

TAF VABP 180500Z 1806/1815 32008KT 6000 FEW030

Example: see airport list